Houston, Texas
Traffic Map
Current Weather Conditions
Houston, Texas
Few Clouds
Few Clouds
35°
Feels Like: 37°
Wind Chill: 35° Ceiling: Unl
Heat Index: 37° Visibility: 10mi
Dew Point: 19° Wind: 0mph
Humidity: 39% Direction: ° ()
Pressure: 30.02in Gusts: 0mph
Raw Report DataKMCJ 291835Z AUTO 00000KT 10SM FEW016 35/19 A3002 RMK AO1
Traffic Incident Summary
Active as of:
Severity:
Category:
InformationThere was an issue retrieving the traffic information for this location. Please try a different location or try again shortly.
Advertisements
Track Severe Weather on mobile